sensor_id;sensor_type;location;lat;lon;timestamp;temperature;humidity
9482;DHT22;4779;48.062;11.672;2023-10-19T13:38:04;18.00;99.90
9482;DHT22;4779;48.062;11.672;2023-10-19T13:40:32;17.90;99.90
9482;DHT22;4779;48.062;11.672;2023-10-19T13:42:59;17.70;99.90
9482;DHT22;4779;48.062;11.672;2023-10-19T13:45:26;17.60;99.90
9482;DHT22;4779;48.062;11.672;2023-10-19T13:47:55;17.40;99.90
9482;DHT22;4779;48.062;11.672;2023-10-19T13:50:24;17.20;99.90
9482;DHT22;4779;48.062;11.672;2023-10-19T13:52:53;17.10;99.90
9482;DHT22;4779;48.062;11.672;2023-10-19T13:55:22;17.00;99.90
9482;DHT22;4779;48.062;11.672;2023-10-19T13:57:50;16.80;99.90
9482;DHT22;4779;48.062;11.672;2023-10-19T14:00:18;16.60;99.90
9482;DHT22;4779;48.062;11.672;2023-10-19T14:02:51;16.50;99.90
9482;DHT22;4779;48.062;11.672;2023-10-19T14:05:18;16.30;99.90
9482;DHT22;4779;48.062;11.672;2023-10-19T14:07:47;16.20;99.90
9482;DHT22;4779;48.062;11.672;2023-10-19T14:10:14;16.00;99.90
9482;DHT22;4779;48.062;11.672;2023-10-19T14:12:43;16.00;99.90
9482;DHT22;4779;48.062;11.672;2023-10-19T14:15:13;15.90;99.90
9482;DHT22;4779;48.062;11.672;2023-10-19T14:17:40;15.80;99.90
9482;DHT22;4779;48.062;11.672;2023-10-19T14:20:08;15.80;99.90
9482;DHT22;4779;48.062;11.672;2023-10-19T14:22:42;15.80;99.90
9482;DHT22;4779;48.062;11.672;2023-10-19T14:25:12;15.70;99.90
9482;DHT22;4779;48.062;11.672;2023-10-19T14:27:40;15.70;99.90
9482;DHT22;4779;48.062;11.672;2023-10-19T14:30:08;15.70;99.90
9482;DHT22;4779;48.062;11.672;2023-10-19T14:32:38;15.70;99.90
9482;DHT22;4779;48.062;11.672;2023-10-19T14:35:06;15.60;99.90
9482;DHT22;4779;48.062;11.672;2023-10-19T14:37:37;15.70;99.90
9482;DHT22;4779;48.062;11.672;2023-10-19T14:40:07;15.80;99.90
9482;DHT22;4779;48.062;11.672;2023-10-19T14:42:37;15.80;99.90
9482;DHT22;4779;48.062;11.672;2023-10-19T14:45:09;15.80;99.90
9482;DHT22;4779;48.062;11.672;2023-10-19T14:47:37;15.90;99.90
9482;DHT22;4779;48.062;11.672;2023-10-19T14:50:09;15.90;99.90
9482;DHT22;4779;48.062;11.672;2023-10-19T14:52:37;15.90;99.90
9482;DHT22;4779;48.062;11.672;2023-10-19T14:55:05;16.00;99.90
9482;DHT22;4779;48.062;11.672;2023-10-19T14:57:33;15.90;99.90
9482;DHT22;4779;48.062;11.672;2023-10-19T15:00:01;15.80;99.90
9482;DHT22;4779;48.062;11.672;2023-10-19T15:02:41;15.70;99.90
9482;DHT22;4779;48.062;11.672;2023-10-19T15:05:08;15.60;99.90
9482;DHT22;4779;48.062;11.672;2023-10-19T15:07:40;15.50;99.90
9482;DHT22;4779;48.062;11.672;2023-10-19T15:10:08;15.40;99.90
9482;DHT22;4779;48.062;11.672;2023-10-19T15:12:38;15.40;99.90
9482;DHT22;4779;48.062;11.672;2023-10-19T15:15:07;15.30;99.90
9482;DHT22;4779;48.062;11.672;2023-10-19T15:17:36;15.20;99.90
9482;DHT22;4779;48.062;11.672;2023-10-19T15:20:04;15.20;99.90
9482;DHT22;4779;48.062;11.672;2023-10-19T15:22:32;15.10;99.90
9482;DHT22;4779;48.062;11.672;2023-10-19T15:24:59;15.10;99.90
9482;DHT22;4779;48.062;11.672;2023-10-19T15:27:26;15.00;99.90
9482;DHT22;4779;48.062;11.672;2023-10-19T15:29:54;15.00;99.90
9482;DHT22;4779;48.062;11.672;2023-10-19T15:32:23;15.00;99.90
9482;DHT22;4779;48.062;11.672;2023-10-19T15:34:51;15.00;99.90
9482;DHT22;4779;48.062;11.672;2023-10-19T16:34:09;13.80;99.90
9482;DHT22;4779;48.062;11.672;2023-10-19T16:36:36;13.80;99.90
9482;DHT22;4779;48.062;11.672;2023-10-19T16:39:04;13.80;99.90
9482;DHT22;4779;48.062;11.672;2023-10-19T16:41:35;13.40;99.90
9482;DHT22;4779;48.062;11.672;2023-10-19T16:56:20;12.50;99.90
9482;DHT22;4779;48.062;11.672;2023-10-19T16:58:49;13.50;99.90
9482;DHT22;4779;48.062;11.672;2023-10-19T17:01:16;13.50;99.90
9482;DHT22;4779;48.062;11.672;2023-10-19T17:03:43;13.50;99.90
9482;DHT22;4779;48.062;11.672;2023-10-19T17:06:11;13.50;99.90
9482;DHT22;4779;48.062;11.672;2023-10-19T17:08:38;13.40;99.90
9482;DHT22;4779;48.062;11.672;2023-10-19T17:11:06;13.40;99.90
9482;DHT22;4779;48.062;11.672;2023-10-19T17:13:34;13.40;99.90
9482;DHT22;4779;48.062;11.672;2023-10-19T17:16:03;13.40;99.90
9482;DHT22;4779;48.062;11.672;2023-10-19T17:18:31;13.20;99.90
9482;DHT22;4779;48.062;11.672;2023-10-19T17:21:00;13.20;99.90
9482;DHT22;4779;48.062;11.672;2023-10-19T17:25:55;13.10;99.90
9482;DHT22;4779;48.062;11.672;2023-10-19T17:28:23;13.00;99.90
9482;DHT22;4779;48.062;11.672;2023-10-19T17:30:50;13.00;99.90
9482;DHT22;4779;48.062;11.672;2023-10-19T17:33:19;13.00;99.90
9482;DHT22;4779;48.062;11.672;2023-10-19T17:35:47;12.90;99.90
9482;DHT22;4779;48.062;11.672;2023-10-19T17:38:15;12.90;99.90
9482;DHT22;4779;48.062;11.672;2023-10-19T17:40:42;12.90;99.90
9482;DHT22;4779;48.062;11.672;2023-10-19T17:43:10;12.90;99.90
9482;DHT22;4779;48.062;11.672;2023-10-19T17:45:44;12.80;99.90
9482;DHT22;4779;48.062;11.672;2023-10-19T17:58:04;12.80;99.90
9482;DHT22;4779;48.062;11.672;2023-10-19T18:00:31;12.70;99.90
9482;DHT22;4779;48.062;11.672;2023-10-19T18:02:59;12.70;99.90
9482;DHT22;4779;48.062;11.672;2023-10-19T18:05:26;12.40;99.90
9482;DHT22;4779;48.062;11.672;2023-10-19T18:22:45;12.30;99.90
9482;DHT22;4779;48.062;11.672;2023-10-19T18:25:13;12.50;99.90
9482;DHT22;4779;48.062;11.672;2023-10-19T18:27:42;12.50;99.90
9482;DHT22;4779;48.062;11.672;2023-10-19T18:30:10;12.50;99.90
9482;DHT22;4779;48.062;11.672;2023-10-19T18:32:38;12.40;99.90
9482;DHT22;4779;48.062;11.672;2023-10-19T18:35:06;12.40;99.90
9482;DHT22;4779;48.062;11.672;2023-10-19T18:37:36;12.40;99.90
9482;DHT22;4779;48.062;11.672;2023-10-19T18:40:05;12.40;99.90
9482;DHT22;4779;48.062;11.672;2023-10-19T18:42:33;12.40;99.90
9482;DHT22;4779;48.062;11.672;2023-10-19T18:45:01;12.40;99.90
9482;DHT22;4779;48.062;11.672;2023-10-19T18:47:30;12.40;99.90
